createdAt,value
2023-02-17T00:00:32.349Z,0.52
2023-02-17T00:02:59.621Z,0.49
2023-02-17T00:05:27.551Z,0.48
2023-02-17T00:07:54.373Z,0.45
2023-02-17T00:10:21.041Z,0.43
2023-02-17T00:12:47.537Z,0.41
2023-02-17T00:15:14.049Z,0.41
2023-02-17T00:17:40.545Z,0.41
2023-02-17T00:20:07.660Z,0.42
2023-02-17T00:22:34.193Z,0.43
2023-02-17T00:25:00.652Z,0.42
2023-02-17T00:27:27.155Z,0.40
2023-02-17T00:29:53.662Z,0.39
2023-02-17T00:32:20.163Z,0.39
2023-02-17T00:34:46.701Z,0.38
2023-02-17T00:37:13.183Z,0.39
2023-02-17T00:39:39.633Z,0.42
2023-02-17T00:42:06.345Z,0.44
2023-02-17T00:44:33.004Z,0.45
2023-02-17T00:46:59.519Z,0.46
2023-02-17T00:49:27.126Z,0.47
2023-02-17T00:51:54.236Z,0.47
2023-02-17T00:54:20.749Z,0.49
2023-02-17T00:56:47.432Z,0.49
2023-02-17T00:59:14.298Z,0.51
2023-02-17T01:01:40.900Z,0.54
2023-02-17T01:04:07.392Z,0.57
2023-02-17T01:06:38.083Z,0.61
2023-02-17T01:09:06.503Z,0.66
2023-02-17T01:11:34.665Z,0.72
2023-02-17T01:14:03.004Z,0.79
2023-02-17T01:16:31.755Z,0.85
2023-02-17T01:18:58.275Z,0.88
2023-02-17T01:21:27.183Z,0.92
2023-02-17T01:23:57.223Z,0.94
2023-02-17T01:26:25.920Z,0.96
2023-02-17T01:28:53.615Z,0.98
2023-02-17T01:31:22.385Z,0.99
2023-02-17T01:33:49.524Z,0.99
2023-02-17T01:36:18.011Z,0.99
2023-02-17T01:38:44.520Z,0.99
2023-02-17T01:41:11.398Z,1.00
2023-02-17T01:43:38.019Z,1.03
2023-02-17T01:46:07.304Z,1.06
2023-02-17T01:48:43.935Z,1.11
2023-02-17T01:51:23.205Z,1.14
2023-02-17T01:53:53.542Z,1.17
2023-02-17T01:56:21.168Z,1.21
2023-02-17T01:58:54.867Z,1.22
2023-02-17T02:01:21.561Z,1.22
2023-02-17T02:03:48.340Z,1.22
2023-02-17T02:06:20.514Z,1.22
2023-02-17T02:09:15.375Z,1.21
2023-02-17T02:11:42.247Z,1.18
2023-02-17T02:14:10.610Z,1.15
2023-02-17T02:17:09.883Z,1.11
2023-02-17T02:19:57.647Z,1.06
2023-02-17T02:22:45.336Z,1.04
2023-02-17T02:25:30.611Z,1.00
2023-02-17T02:28:17.930Z,0.93
2023-02-17T02:30:50.515Z,0.87
2023-02-17T02:33:25.743Z,0.85
2023-02-17T02:36:03.051Z,0.80
2023-02-17T02:38:37.579Z,0.76
2023-02-17T02:41:37.555Z,0.72
2023-02-17T02:44:27.959Z,0.72
2023-02-17T02:47:05.895Z,0.70
2023-02-17T02:49:35.351Z,0.66
2023-02-17T02:52:13.867Z,0.63
2023-02-17T02:55:04.153Z,0.61
2023-02-17T02:57:47.314Z,0.61
2023-02-17T03:00:25.645Z,0.59
2023-02-17T03:02:52.136Z,0.57
2023-02-17T03:05:37.527Z,0.56
2023-02-17T03:08:11.195Z,0.49
2023-02-17T03:10:46.142Z,0.44
2023-02-17T03:13:12.672Z,0.41
2023-02-17T03:15:39.316Z,0.38
2023-02-17T03:18:05.961Z,0.36
2023-02-17T03:20:38.625Z,0.34
2023-02-17T03:23:07.043Z,0.31
2023-02-17T03:25:33.575Z,0.26
2023-02-17T03:28:00.305Z,0.21
2023-02-17T03:30:27.583Z,0.18
2023-02-17T03:32:54.521Z,0.16
2023-02-17T03:35:21.058Z,0.11
2023-02-17T03:37:47.567Z,0.08
2023-02-17T03:40:14.057Z,0.06
2023-02-17T03:42:40.555Z,0.05
2023-02-17T03:45:07.535Z,0.05
2023-02-17T03:47:34.020Z,0.07
2023-02-17T03:50:00.518Z,0.08
2023-02-17T03:52:27.023Z,0.08
2023-02-17T03:54:53.528Z,0.07
2023-02-17T03:57:20.142Z,0.05
2023-02-17T03:59:46.795Z,0.04
2023-02-17T04:02:13.286Z,0.04
2023-02-17T04:04:39.785Z,0.03
2023-02-17T04:07:06.324Z,0.02
2023-02-17T04:09:32.976Z,0.01
2023-02-17T04:11:59.481Z,0.01
2023-02-17T04:14:26.000Z,0.00
2023-02-17T04:16:52.507Z,-0.00
2023-02-17T04:19:21.159Z,-0.01
2023-02-17T04:21:47.961Z,-0.02
2023-02-17T04:24:14.475Z,-0.03
2023-02-17T04:26:40.972Z,-0.04
2023-02-17T04:29:07.428Z,-0.04
2023-02-17T04:31:34.073Z,-0.06
2023-02-17T04:34:00.674Z,-0.06
2023-02-17T04:36:27.198Z,-0.08
2023-02-17T04:38:53.898Z,-0.11
2023-02-17T04:41:20.556Z,-0.13
2023-02-17T04:43:47.311Z,-0.14
2023-02-17T04:46:13.982Z,-0.13
2023-02-17T04:48:40.505Z,-0.16
2023-02-17T04:51:07.038Z,-0.17
2023-02-17T04:53:33.578Z,-0.15
2023-02-17T04:56:00.050Z,-0.15
2023-02-17T04:58:26.580Z,-0.13
2023-02-17T05:00:53.089Z,-0.11
2023-02-17T05:03:19.648Z,-0.08
2023-02-17T05:05:46.240Z,-0.05
2023-02-17T05:08:12.819Z,-0.03
2023-02-17T05:10:39.259Z,-0.02
2023-02-17T05:13:05.757Z,0.01
2023-02-17T05:15:34.783Z,0.04
2023-02-17T05:18:01.990Z,0.08
2023-02-17T05:20:28.552Z,0.13
2023-02-17T05:22:55.024Z,0.18
2023-02-17T05:25:21.539Z,0.23
2023-02-17T05:27:48.078Z,0.27
2023-02-17T05:30:14.796Z,0.34
2023-02-17T05:32:41.400Z,0.38
2023-02-17T05:35:08.378Z,0.42
2023-02-17T05:37:34.867Z,0.46
2023-02-17T05:40:01.446Z,0.51
2023-02-17T05:42:27.978Z,0.56
2023-02-17T05:44:55.753Z,0.60
2023-02-17T05:47:23.002Z,0.64
2023-02-17T05:49:49.759Z,0.68
2023-02-17T05:52:16.556Z,0.70
2023-02-17T05:54:43.049Z,0.75
2023-02-17T05:57:09.772Z,0.80
2023-02-17T05:59:36.280Z,0.85
2023-02-17T06:02:02.805Z,0.89
2023-02-17T06:04:29.310Z,0.94
2023-02-17T06:06:55.811Z,0.98
2023-02-17T06:09:22.305Z,1.04
2023-02-17T06:11:48.761Z,1.12
2023-02-17T06:14:15.249Z,1.19
2023-02-17T06:16:42.012Z,1.26
2023-02-17T06:19:08.580Z,1.34
2023-02-17T06:21:35.315Z,1.40
2023-02-17T06:24:01.842Z,1.48
2023-02-17T06:26:28.415Z,1.54
2023-02-17T06:28:54.936Z,1.59
2023-02-17T06:31:21.624Z,1.65
2023-02-17T06:33:48.350Z,1.72
2023-02-17T06:36:16.050Z,1.78
2023-02-17T06:38:42.566Z,1.84
2023-02-17T06:41:09.412Z,1.92
2023-02-17T06:43:35.907Z,1.99
2023-02-17T06:46:02.497Z,2.05
2023-02-17T06:48:29.143Z,2.13
2023-02-17T06:50:55.597Z,2.20
2023-02-17T06:53:22.073Z,2.24
2023-02-17T06:55:48.542Z,2.28
2023-02-17T06:58:15.168Z,2.35
2023-02-17T07:00:41.761Z,2.44
2023-02-17T07:03:08.372Z,2.54
2023-02-17T07:05:36.747Z,2.64
2023-02-17T07:08:04.904Z,2.76
2023-02-17T07:10:31.799Z,2.87
2023-02-17T07:12:58.448Z,3.00
2023-02-17T07:15:24.966Z,3.13
2023-02-17T07:17:51.471Z,3.26
2023-02-17T07:20:18.208Z,3.39
2023-02-17T07:22:44.682Z,3.52
2023-02-17T07:25:11.221Z,3.63
2023-02-17T07:27:38.203Z,3.72
2023-02-17T07:30:05.720Z,3.80
2023-02-17T07:32:32.316Z,3.87
2023-02-17T07:34:58.852Z,3.94
2023-02-17T07:37:25.334Z,4.01
2023-02-17T07:39:51.896Z,4.10
2023-02-17T07:42:18.434Z,4.17
2023-02-17T07:44:44.936Z,4.25
2023-02-17T07:47:11.362Z,4.32
2023-02-17T07:49:38.180Z,4.37
2023-02-17T07:52:05.593Z,4.44
2023-02-17T07:54:32.269Z,4.51
2023-02-17T07:56:58.762Z,4.59
2023-02-17T07:59:25.254Z,4.66
2023-02-17T08:01:51.828Z,4.76
2023-02-17T08:04:18.367Z,4.90
2023-02-17T08:06:44.972Z,5.07
2023-02-17T08:09:12.314Z,5.25
2023-02-17T08:11:40.014Z,5.38
2023-02-17T08:14:06.516Z,5.51
2023-02-17T08:16:33.083Z,5.66
2023-02-17T08:18:59.679Z,5.83
2023-02-17T08:21:27.445Z,6.02
2023-02-17T08:23:54.466Z,6.21
2023-02-17T08:26:21.715Z,6.42
2023-02-17T08:28:49.032Z,6.60
2023-02-17T08:31:21.772Z,6.88
2023-02-17T08:33:48.681Z,7.21
2023-02-17T08:36:15.521Z,7.56
2023-02-17T08:38:42.286Z,7.88
2023-02-17T08:41:16.131Z,8.15
2023-02-17T08:43:43.509Z,8.54
2023-02-17T08:46:11.943Z,9.20
2023-02-17T08:48:38.530Z,10.46
2023-02-17T08:51:05.444Z,11.79
2023-02-17T08:53:32.095Z,11.88
2023-02-17T08:55:58.727Z,11.82
2023-02-17T08:58:25.450Z,11.49
2023-02-17T09:00:56.189Z,11.06
2023-02-17T09:03:29.943Z,10.73
2023-02-17T09:05:57.916Z,10.57
2023-02-17T09:08:25.360Z,10.30
2023-02-17T09:10:52.202Z,10.15
2023-02-17T09:13:19.472Z,10.09
2023-02-17T09:15:46.032Z,9.90
2023-02-17T09:18:12.630Z,9.85
2023-02-17T09:20:39.153Z,10.01
2023-02-17T09:23:06.641Z,10.51
2023-02-17T09:25:33.312Z,11.22
2023-02-17T09:28:00.071Z,11.47
2023-02-17T09:30:27.015Z,11.98
2023-02-17T09:32:53.495Z,13.01
2023-02-17T09:35:20.207Z,13.69
2023-02-17T09:37:46.966Z,14.16
2023-02-17T09:40:27.811Z,16.49
2023-02-17T09:42:54.379Z,19.79
2023-02-17T09:45:34.095Z,21.90
2023-02-17T09:48:07.216Z,21.15
2023-02-17T09:50:55.675Z,19.94
2023-02-17T09:53:40.488Z,18.50
2023-02-17T09:56:13.727Z,17.28
2023-02-17T09:59:06.229Z,16.71
2023-02-17T10:01:34.309Z,16.42
2023-02-17T10:04:17.270Z,16.03
2023-02-17T10:06:48.449Z,15.22
2023-02-17T10:09:20.560Z,14.64
2023-02-17T10:12:04.806Z,14.08
2023-02-17T10:15:00.844Z,13.57
2023-02-17T10:17:49.074Z,13.04
2023-02-17T10:20:38.683Z,12.54
2023-02-17T10:23:21.301Z,12.02
2023-02-17T10:25:50.835Z,11.69
2023-02-17T10:28:39.157Z,11.45
2023-02-17T10:31:12.377Z,11.26
2023-02-17T10:33:51.114Z,11.10
2023-02-17T10:36:29.361Z,11.06
2023-02-17T10:38:58.591Z,11.09
2023-02-17T10:41:32.824Z,11.05
2023-02-17T10:44:01.084Z,11.02
2023-02-17T10:46:30.815Z,10.98
2023-02-17T10:48:59.629Z,10.98
2023-02-17T10:51:28.879Z,10.89
2023-02-17T10:54:03.072Z,10.86
2023-02-17T10:56:34.673Z,10.77
2023-02-17T10:59:27.366Z,10.80
2023-02-17T11:02:00.688Z,10.79
2023-02-17T11:04:27.204Z,10.73
2023-02-17T11:06:54.944Z,10.69
2023-02-17T11:09:27.210Z,10.62
2023-02-17T11:11:58.475Z,10.55
2023-02-17T11:14:28.645Z,10.47
2023-02-17T11:17:02.467Z,10.38
2023-02-17T11:19:31.538Z,10.31
2023-02-17T11:21:59.421Z,10.25
2023-02-17T11:24:27.193Z,10.25
2023-02-17T11:27:00.130Z,10.31
2023-02-17T11:29:27.650Z,10.32
2023-02-17T11:32:06.862Z,10.25
2023-02-17T11:34:38.613Z,10.18
2023-02-17T11:37:19.719Z,10.19
2023-02-17T11:39:52.390Z,10.20
2023-02-17T11:42:27.304Z,10.21
2023-02-17T11:44:56.400Z,10.22
2023-02-17T11:47:47.661Z,10.24
2023-02-17T11:50:44.439Z,10.31
2023-02-17T11:53:29.670Z,10.53
2023-02-17T11:56:08.487Z,10.68
2023-02-17T11:59:12.767Z,10.72
2023-02-17T12:01:58.307Z,10.75
2023-02-17T12:04:29.618Z,10.69
2023-02-17T12:07:02.349Z,10.67
2023-02-17T12:10:03.933Z,10.66
2023-02-17T12:12:53.364Z,10.65
2023-02-17T12:15:31.449Z,10.61
2023-02-17T12:18:13.795Z,10.55
2023-02-17T12:21:05.404Z,10.49
2023-02-17T12:23:49.058Z,10.45
2023-02-17T12:26:48.345Z,10.40
2023-02-17T12:29:28.459Z,10.35
2023-02-17T12:32:10.261Z,10.34
2023-02-17T12:34:44.232Z,10.36
2023-02-17T12:37:19.145Z,10.41
2023-02-17T12:40:03.342Z,10.47
2023-02-17T12:42:38.456Z,10.49
2023-02-17T12:45:21.463Z,10.52
2023-02-17T12:47:57.530Z,10.54
2023-02-17T12:50:37.415Z,10.59
2023-02-17T12:53:13.044Z,10.69
2023-02-17T12:55:49.827Z,10.80
2023-02-17T12:58:20.639Z,10.91
2023-02-17T13:00:54.437Z,10.99
2023-02-17T13:03:21.356Z,11.01
2023-02-17T13:05:58.056Z,11.04
2023-02-17T13:08:36.115Z,11.06
2023-02-17T13:11:06.583Z,11.05
2023-02-17T13:13:35.102Z,11.03
2023-02-17T13:16:13.710Z,11.01
2023-02-17T13:18:43.268Z,11.00
2023-02-17T13:21:21.990Z,10.98
2023-02-17T13:24:14.811Z,10.93
2023-02-17T13:26:44.840Z,10.90
2023-02-17T13:29:20.452Z,10.88
2023-02-17T13:31:56.463Z,10.87
2023-02-17T13:34:38.341Z,10.83
2023-02-17T13:37:16.782Z,10.78
2023-02-17T13:39:43.813Z,10.74
2023-02-17T13:42:35.756Z,10.71
2023-02-17T13:45:11.203Z,10.68
2023-02-17T13:47:39.609Z,10.65
2023-02-17T13:50:07.201Z,10.62
2023-02-17T13:52:33.688Z,10.60
2023-02-17T13:55:06.185Z,10.60
2023-02-17T13:57:35.442Z,10.63
2023-02-17T14:00:09.220Z,10.68
2023-02-17T14:02:45.522Z,10.73
2023-02-17T14:05:27.144Z,10.79
2023-02-17T14:07:59.224Z,10.87
2023-02-17T14:10:26.979Z,10.91
2023-02-17T14:12:54.950Z,10.92
2023-02-17T14:15:25.740Z,10.92
2023-02-17T14:17:53.036Z,10.91
2023-02-17T14:20:25.399Z,10.90
2023-02-17T14:23:04.709Z,10.90
2023-02-17T14:25:35.327Z,10.89
2023-02-17T14:28:02.193Z,10.87
2023-02-17T14:30:30.693Z,10.83
2023-02-17T14:33:17.508Z,10.77
2023-02-17T14:35:51.610Z,10.71
2023-02-17T14:38:28.934Z,10.69
2023-02-17T14:40:55.428Z,10.66
2023-02-17T14:43:23.253Z,10.61
2023-02-17T14:45:50.291Z,10.57
2023-02-17T14:48:16.986Z,10.54
2023-02-17T14:50:44.582Z,10.52
2023-02-17T14:53:16.191Z,10.49
2023-02-17T14:55:50.617Z,10.46
2023-02-17T14:58:23.316Z,10.45
2023-02-17T15:00:50.540Z,10.43
2023-02-17T15:03:17.051Z,10.42
2023-02-17T15:05:44.540Z,10.43
2023-02-17T15:08:14.889Z,10.43
2023-02-17T15:10:42.361Z,10.43
2023-02-17T15:13:20.174Z,10.43
2023-02-17T15:15:47.120Z,10.43
2023-02-17T15:18:16.317Z,10.42
2023-02-17T15:20:44.663Z,10.43
2023-02-17T15:23:16.106Z,10.43
2023-02-17T15:25:43.477Z,10.42
2023-02-17T15:28:16.006Z,10.40
2023-02-17T15:30:48.352Z,10.39
2023-02-17T15:33:14.950Z,10.39
2023-02-17T15:35:41.481Z,10.38
2023-02-17T15:38:12.431Z,10.37
2023-02-17T15:40:39.651Z,10.35
2023-02-17T15:43:06.606Z,10.32
2023-02-17T15:45:33.512Z,10.31
2023-02-17T15:48:11.371Z,10.29
2023-02-17T15:50:38.930Z,10.26
2023-02-17T15:53:05.474Z,10.22
2023-02-17T15:55:33.593Z,10.20
2023-02-17T15:58:04.536Z,10.15
2023-02-17T16:00:35.709Z,10.13
2023-02-17T16:03:02.838Z,10.11
2023-02-17T16:05:29.898Z,10.11
2023-02-17T16:07:56.495Z,10.09
2023-02-17T16:10:26.729Z,10.09
2023-02-17T16:12:55.368Z,10.09
2023-02-17T16:15:24.465Z,10.09
2023-02-17T16:17:51.493Z,10.08
2023-02-17T16:20:30.367Z,10.09
2023-02-17T16:22:56.973Z,10.10
2023-02-17T16:25:23.751Z,10.09
2023-02-17T16:27:52.566Z,10.09
2023-02-17T16:30:34.588Z,10.08
2023-02-17T16:33:02.079Z,10.07
2023-02-17T16:35:31.794Z,10.05
2023-02-17T16:38:14.588Z,10.03
2023-02-17T16:40:44.994Z,9.99
2023-02-17T16:43:11.631Z,9.98
2023-02-17T16:46:02.493Z,9.96
2023-02-17T16:48:32.011Z,9.94
2023-02-17T16:50:58.627Z,9.90
2023-02-17T16:53:25.822Z,9.86
2023-02-17T16:55:54.710Z,9.82
2023-02-17T16:58:23.745Z,9.79
2023-02-17T17:00:52.774Z,9.75
2023-02-17T17:03:19.900Z,9.72
2023-02-17T17:05:46.514Z,9.69
2023-02-17T17:08:14.443Z,9.66
2023-02-17T17:10:40.910Z,9.64
2023-02-17T17:13:07.547Z,9.63
2023-02-17T17:15:40.007Z,9.60
2023-02-17T17:18:08.829Z,9.58
2023-02-17T17:20:37.708Z,9.57
2023-02-17T17:23:08.129Z,9.54
2023-02-17T17:25:39.327Z,9.51
2023-02-17T17:28:07.038Z,9.48
2023-02-17T17:30:35.410Z,9.45
2023-02-17T17:33:02.373Z,9.43
2023-02-17T17:35:30.023Z,9.41
2023-02-17T17:37:56.976Z,9.38
2023-02-17T17:40:26.393Z,9.33
2023-02-17T17:42:53.253Z,9.28
2023-02-17T17:45:19.813Z,9.24
2023-02-17T17:47:46.655Z,9.21
2023-02-17T17:50:17.507Z,9.19
2023-02-17T17:52:45.687Z,9.17
2023-02-17T17:55:13.132Z,9.16
2023-02-17T17:57:40.363Z,9.14
2023-02-17T18:00:11.018Z,9.13
2023-02-17T18:02:37.497Z,9.12
2023-02-17T18:05:03.981Z,9.11
2023-02-17T18:07:32.116Z,9.12
2023-02-17T18:09:59.462Z,9.13
2023-02-17T18:12:26.044Z,9.14
2023-02-17T18:14:54.629Z,9.14
2023-02-17T18:17:23.213Z,9.14
2023-02-17T18:19:51.596Z,9.15
2023-02-17T18:22:18.044Z,9.15
2023-02-17T18:24:44.574Z,9.16
2023-02-17T18:27:11.261Z,9.16
2023-02-17T18:29:37.794Z,9.16
2023-02-17T18:32:04.565Z,9.16
2023-02-17T18:34:31.184Z,9.16
2023-02-17T18:36:57.722Z,9.15
2023-02-17T18:39:24.262Z,9.15
2023-02-17T18:41:50.930Z,9.16
2023-02-17T18:44:17.443Z,9.16
2023-02-17T18:46:43.969Z,9.16
2023-02-17T18:49:10.573Z,9.17
2023-02-17T18:51:37.089Z,9.16
2023-02-17T18:54:09.423Z,9.15
2023-02-17T18:56:36.800Z,9.15
2023-02-17T18:59:03.284Z,9.14
2023-02-17T19:01:32.801Z,9.14
2023-02-17T19:03:59.577Z,9.15
2023-02-17T19:06:29.670Z,9.16
2023-02-17T19:08:57.185Z,9.15
2023-02-17T19:11:25.238Z,9.15
2023-02-17T19:13:52.233Z,9.12
2023-02-17T19:16:27.049Z,9.12
2023-02-17T19:18:55.234Z,9.10
2023-02-17T19:21:22.011Z,9.10
2023-02-17T19:23:48.922Z,9.10
2023-02-17T19:26:17.615Z,9.10
2023-02-17T19:28:45.216Z,9.11
2023-02-17T19:31:19.242Z,9.13
2023-02-17T19:33:46.772Z,9.14
2023-02-17T19:36:19.058Z,9.16
2023-02-17T19:38:46.722Z,9.17
2023-02-17T19:41:14.401Z,9.18
2023-02-17T19:43:41.607Z,9.19
2023-02-17T19:46:11.191Z,9.19
2023-02-17T19:48:37.837Z,9.20
2023-02-17T19:51:06.991Z,9.22
2023-02-17T19:53:34.191Z,9.22
2023-02-17T19:56:31.209Z,9.22
2023-02-17T19:58:58.490Z,9.22
2023-02-17T20:01:30.660Z,9.23
2023-02-17T20:03:58.855Z,9.19
2023-02-17T20:06:29.280Z,9.18
2023-02-17T20:09:02.355Z,9.15
2023-02-17T20:11:29.508Z,9.12
2023-02-17T20:13:57.853Z,9.09
2023-02-17T20:16:25.297Z,9.07
2023-02-17T20:18:52.127Z,9.05
2023-02-17T20:21:24.670Z,9.02
2023-02-17T20:23:52.108Z,9.00
2023-02-17T20:26:22.114Z,8.96
2023-02-17T20:28:49.123Z,8.95
2023-02-17T20:31:15.712Z,8.93
2023-02-17T20:33:42.458Z,8.93
2023-02-17T20:36:10.719Z,8.93
2023-02-17T20:38:38.709Z,8.92
2023-02-17T20:41:07.334Z,8.93
2023-02-17T20:43:35.378Z,8.93
2023-02-17T20:46:02.022Z,8.94
2023-02-17T20:48:28.598Z,8.93
2023-02-17T20:50:55.832Z,8.93
2023-02-17T20:53:22.890Z,8.93
2023-02-17T20:55:49.870Z,8.94
2023-02-17T20:58:16.417Z,8.95
2023-02-17T21:00:43.089Z,8.95
2023-02-17T21:03:09.618Z,8.95
2023-02-17T21:05:36.357Z,8.96
2023-02-17T21:08:02.904Z,8.97
2023-02-17T21:10:31.322Z,8.96
2023-02-17T21:12:57.867Z,8.95
2023-02-17T21:15:24.712Z,8.95
2023-02-17T21:17:51.237Z,8.94
2023-02-17T21:20:20.424Z,8.93
2023-02-17T21:22:47.708Z,8.91
2023-02-17T21:25:14.456Z,8.87
2023-02-17T21:27:40.919Z,8.84
2023-02-17T21:30:09.074Z,8.80
2023-02-17T21:32:35.673Z,8.75
2023-02-17T21:35:02.489Z,8.71
2023-02-17T21:37:29.011Z,8.68
2023-02-17T21:39:55.661Z,8.66
2023-02-17T21:42:22.170Z,8.67
2023-02-17T21:44:48.664Z,8.69
2023-02-17T21:47:15.719Z,8.72
2023-02-17T21:49:42.327Z,8.78
2023-02-17T21:52:08.874Z,8.83
2023-02-17T21:54:35.917Z,8.90
2023-02-17T21:57:04.360Z,8.98
2023-02-17T21:59:31.077Z,9.06
2023-02-17T22:01:57.586Z,9.15
2023-02-17T22:04:24.235Z,9.23
2023-02-17T22:06:50.714Z,9.31
2023-02-17T22:09:17.390Z,9.39
2023-02-17T22:11:45.805Z,9.47
2023-02-17T22:14:15.288Z,9.55
2023-02-17T22:16:42.419Z,9.63
2023-02-17T22:19:23.260Z,9.69
2023-02-17T22:21:51.416Z,9.75
2023-02-17T22:24:18.334Z,9.80
2023-02-17T22:26:44.852Z,9.84
2023-02-17T22:29:11.357Z,9.88
2023-02-17T22:31:37.999Z,9.92
2023-02-17T22:34:06.594Z,9.95
2023-02-17T22:36:35.078Z,9.99
2023-02-17T22:39:02.548Z,10.02
2023-02-17T22:41:29.503Z,10.05
2023-02-17T22:43:56.151Z,10.08
2023-02-17T22:46:24.834Z,10.11
2023-02-17T22:48:52.097Z,10.13
2023-02-17T22:51:26.923Z,10.13
2023-02-17T22:53:53.752Z,10.12
2023-02-17T22:56:21.977Z,10.10
2023-02-17T22:58:48.499Z,10.09
2023-02-17T23:01:18.931Z,10.07
2023-02-17T23:03:45.647Z,10.05
2023-02-17T23:06:15.114Z,10.03
2023-02-17T23:08:41.902Z,10.02
2023-02-17T23:11:10.209Z,10.01
2023-02-17T23:13:37.647Z,10.03
2023-02-17T23:16:05.502Z,10.05
2023-02-17T23:18:33.799Z,10.06
2023-02-17T23:21:06.477Z,10.10
2023-02-17T23:23:32.966Z,10.13
2023-02-17T23:25:59.444Z,10.17
2023-02-17T23:28:27.054Z,10.20
2023-02-17T23:30:53.714Z,10.24
2023-02-17T23:33:23.121Z,10.28
2023-02-17T23:35:49.710Z,10.34
2023-02-17T23:38:19.784Z,10.38
2023-02-17T23:40:51.219Z,10.42
2023-02-17T23:43:18.910Z,10.48
2023-02-17T23:45:45.870Z,10.53
2023-02-17T23:48:12.773Z,10.58
2023-02-17T23:50:39.290Z,10.63
2023-02-17T23:53:06.825Z,10.68
2023-02-17T23:55:33.554Z,10.74
2023-02-17T23:58:00.720Z,10.77
